createdAt,value
2023-06-08T00:00:00.079Z,19.24
2023-06-08T00:02:26.725Z,19.24
2023-06-08T00:04:54.151Z,19.24
2023-06-08T00:07:22.993Z,19.21
2023-06-08T00:09:52.058Z,19.17
2023-06-08T00:12:19.377Z,19.18
2023-06-08T00:14:46.886Z,19.19
2023-06-08T00:17:14.650Z,19.17
2023-06-08T00:19:43.909Z,19.13
2023-06-08T00:22:13.780Z,19.12
2023-06-08T00:24:40.852Z,19.10
2023-06-08T00:27:07.900Z,19.05
2023-06-08T00:29:34.818Z,19.02
2023-06-08T00:32:01.549Z,19.00
2023-06-08T00:34:28.334Z,18.98
2023-06-08T00:36:54.901Z,18.97
2023-06-08T00:39:21.486Z,18.96
2023-06-08T00:41:48.075Z,18.91
2023-06-08T00:44:19.902Z,18.87
2023-06-08T00:46:46.756Z,18.84
2023-06-08T00:49:18.969Z,18.82
2023-06-08T00:51:46.618Z,18.79
2023-06-08T00:54:15.890Z,18.75
2023-06-08T00:56:43.639Z,18.73
2023-06-08T00:59:13.110Z,18.71
2023-06-08T01:01:40.200Z,18.67
2023-06-08T01:04:07.770Z,18.66
2023-06-08T01:06:37.769Z,18.63
2023-06-08T01:09:14.141Z,18.62
2023-06-08T01:12:05.031Z,18.60
2023-06-08T01:14:42.868Z,18.58
2023-06-08T01:17:13.769Z,18.56
2023-06-08T01:19:54.143Z,18.55
2023-06-08T01:22:27.871Z,18.55
2023-06-08T01:24:57.830Z,18.54
2023-06-08T01:27:27.467Z,18.51
2023-06-08T01:29:53.947Z,18.47
2023-06-08T01:32:20.581Z,18.43
2023-06-08T01:34:47.988Z,18.41
2023-06-08T01:37:24.942Z,18.36
2023-06-08T01:40:05.604Z,18.36
2023-06-08T01:42:33.922Z,18.30
2023-06-08T01:45:13.646Z,18.31
2023-06-08T01:47:46.469Z,18.35
2023-06-08T01:50:13.489Z,18.32
2023-06-08T01:52:42.902Z,18.31
2023-06-08T01:55:20.376Z,18.32
2023-06-08T01:57:47.672Z,18.29
2023-06-08T02:00:20.658Z,18.27
2023-06-08T02:02:47.437Z,18.29
2023-06-08T02:05:15.670Z,18.27
2023-06-08T02:07:43.404Z,18.26
2023-06-08T02:10:12.700Z,18.22
2023-06-08T02:12:40.093Z,18.21
2023-06-08T02:15:07.241Z,18.19
2023-06-08T02:17:37.709Z,18.20
2023-06-08T02:20:10.540Z,18.15
2023-06-08T02:22:38.607Z,18.15
2023-06-08T02:25:07.299Z,18.06
2023-06-08T02:27:37.383Z,18.03
2023-06-08T02:30:10.493Z,18.00
2023-06-08T02:32:37.945Z,17.97
2023-06-08T02:35:06.050Z,17.96
2023-06-08T02:37:34.150Z,17.97
2023-06-08T02:40:02.045Z,17.93
2023-06-08T02:42:28.617Z,17.91
2023-06-08T02:44:55.152Z,17.87
2023-06-08T02:47:31.990Z,17.89
2023-06-08T02:49:58.685Z,17.84
2023-06-08T02:52:26.011Z,17.80
2023-06-08T02:54:52.582Z,17.72
2023-06-08T02:57:19.167Z,17.70
2023-06-08T02:59:45.695Z,17.71
2023-06-08T03:02:12.657Z,17.68
2023-06-08T03:04:39.635Z,17.71
2023-06-08T03:07:10.574Z,17.67
2023-06-08T03:09:37.165Z,17.64
2023-06-08T03:12:04.608Z,17.68
2023-06-08T03:14:31.195Z,17.69
2023-06-08T03:17:06.557Z,17.64
2023-06-08T03:19:42.228Z,17.61
2023-06-08T03:22:10.186Z,17.61
2023-06-08T03:24:37.007Z,17.56
2023-06-08T03:27:04.534Z,17.58
2023-06-08T03:29:31.820Z,17.56
2023-06-08T03:31:59.511Z,17.57
2023-06-08T03:34:27.319Z,17.58
2023-06-08T03:36:54.820Z,17.53
2023-06-08T03:39:21.634Z,17.54
2023-06-08T03:41:48.381Z,17.48
2023-06-08T03:44:14.954Z,17.45
2023-06-08T03:47:02.996Z,17.43
2023-06-08T03:49:29.452Z,17.42
2023-06-08T03:51:57.062Z,17.37
2023-06-08T03:54:23.533Z,17.35
2023-06-08T03:56:50.040Z,17.30
2023-06-08T03:59:16.545Z,17.31
2023-06-08T04:01:43.082Z,17.28
2023-06-08T04:04:09.636Z,17.18
2023-06-08T04:06:39.394Z,17.14
2023-06-08T04:09:06.103Z,17.16
2023-06-08T04:11:32.639Z,17.11
2023-06-08T04:13:59.099Z,17.06
2023-06-08T04:16:25.862Z,17.09
2023-06-08T04:18:53.370Z,17.08
2023-06-08T04:21:20.009Z,17.07
2023-06-08T04:23:47.849Z,17.07
2023-06-08T04:26:14.860Z,17.04
2023-06-08T04:28:41.446Z,16.95
2023-06-08T04:31:08.052Z,17.00
2023-06-08T04:33:34.623Z,17.02
2023-06-08T04:36:01.460Z,17.06
2023-06-08T04:38:28.415Z,17.10
2023-06-08T04:40:55.756Z,17.05
2023-06-08T04:43:22.806Z,17.08
2023-06-08T04:46:00.891Z,17.10
2023-06-08T04:49:05.755Z,17.13
2023-06-08T04:51:32.232Z,17.14
2023-06-08T04:54:00.720Z,17.13
2023-06-08T04:56:30.450Z,17.11
2023-06-08T04:58:59.778Z,17.10
2023-06-08T05:01:26.377Z,17.07
2023-06-08T05:03:52.890Z,17.09
2023-06-08T05:06:19.459Z,17.09
2023-06-08T05:08:46.212Z,17.12
2023-06-08T05:11:13.266Z,17.11
2023-06-08T05:13:39.769Z,17.07
2023-06-08T05:16:06.249Z,17.11
2023-06-08T05:18:32.762Z,17.11
2023-06-08T05:20:59.309Z,17.15
2023-06-08T05:23:25.823Z,17.10
2023-06-08T05:25:52.496Z,17.17
2023-06-08T05:28:19.710Z,17.23
2023-06-08T05:30:46.236Z,17.27
2023-06-08T05:33:12.968Z,17.27
2023-06-08T05:35:39.520Z,17.28
2023-06-08T05:38:06.273Z,17.34
2023-06-08T05:40:32.822Z,17.35
2023-06-08T05:42:59.277Z,17.37
2023-06-08T05:45:26.913Z,17.37
2023-06-08T05:47:53.569Z,17.42
2023-06-08T05:50:21.257Z,17.44
2023-06-08T05:52:47.782Z,17.48
2023-06-08T05:55:14.397Z,17.46
2023-06-08T05:57:41.653Z,17.41
2023-06-08T06:00:13.106Z,17.40
2023-06-08T06:02:40.949Z,17.37
2023-06-08T06:05:09.807Z,17.32
2023-06-08T06:07:37.114Z,17.31
2023-06-08T06:10:05.001Z,17.31
2023-06-08T06:12:31.720Z,17.36
2023-06-08T06:14:58.244Z,17.33
2023-06-08T06:17:25.098Z,17.33
2023-06-08T06:19:51.621Z,17.31
2023-06-08T06:22:18.746Z,17.35
2023-06-08T06:24:45.801Z,17.40
2023-06-08T06:27:12.325Z,17.43
2023-06-08T06:29:38.878Z,17.44
2023-06-08T06:32:06.008Z,17.48
2023-06-08T06:34:32.547Z,17.55
2023-06-08T06:36:59.223Z,17.62
2023-06-08T06:39:25.713Z,17.69
2023-06-08T06:41:52.267Z,17.75
2023-06-08T06:44:18.814Z,17.80
2023-06-08T06:46:45.520Z,17.85
2023-06-08T06:49:36.535Z,17.91
2023-06-08T06:52:03.111Z,18.01
2023-06-08T06:54:29.691Z,18.09
2023-06-08T06:56:56.178Z,18.16
2023-06-08T06:59:23.688Z,18.23
2023-06-08T07:01:50.286Z,18.25
2023-06-08T07:04:17.202Z,18.26
2023-06-08T07:06:44.187Z,18.27
2023-06-08T07:09:11.362Z,18.32
2023-06-08T07:11:37.865Z,18.38
2023-06-08T07:14:04.400Z,18.40
2023-06-08T07:16:31.125Z,18.46
2023-06-08T07:18:57.773Z,18.51
2023-06-08T07:21:26.467Z,18.56
2023-06-08T07:24:25.827Z,18.64
2023-06-08T07:26:48.126Z,18.67
2023-06-08T07:29:14.755Z,18.77
2023-06-08T07:31:41.340Z,18.80
2023-06-08T07:34:10.708Z,18.80
2023-06-08T07:36:37.452Z,18.80
2023-06-08T07:39:04.980Z,18.91
2023-06-08T07:41:35.507Z,18.92
2023-06-08T07:44:03.292Z,18.96
2023-06-08T07:46:29.973Z,19.02
2023-06-08T07:48:56.516Z,19.06
2023-06-08T07:51:23.246Z,19.09
2023-06-08T07:53:50.188Z,19.14
2023-06-08T07:56:16.733Z,19.19
2023-06-08T07:58:43.253Z,19.22
2023-06-08T08:01:09.897Z,19.22
2023-06-08T08:03:38.785Z,19.24
2023-06-08T08:06:06.689Z,19.29
2023-06-08T08:08:33.957Z,19.34
2023-06-08T08:11:00.480Z,19.33
2023-06-08T08:13:27.129Z,19.39
2023-06-08T08:15:53.617Z,19.40
2023-06-08T08:18:20.220Z,19.37
2023-06-08T08:21:01.017Z,19.41
2023-06-08T08:23:27.647Z,19.45
2023-06-08T08:25:54.187Z,19.45
2023-06-08T08:28:20.681Z,19.51
2023-06-08T08:30:47.277Z,19.58
2023-06-08T08:33:17.340Z,19.72
2023-06-08T08:35:44.405Z,19.75
2023-06-08T08:38:10.915Z,19.80
2023-06-08T08:40:38.566Z,19.98
2023-06-08T08:43:08.033Z,19.97
2023-06-08T08:45:35.556Z,19.92
2023-06-08T08:48:02.964Z,19.96
2023-06-08T08:50:35.248Z,19.98
2023-06-08T08:53:03.069Z,19.97
2023-06-08T08:58:00.845Z,20.10
2023-06-08T09:00:27.555Z,20.17
2023-06-08T09:02:54.083Z,20.18
2023-06-08T09:05:20.802Z,20.25
2023-06-08T09:07:47.515Z,20.24
2023-06-08T09:10:22.798Z,20.31
2023-06-08T09:12:51.653Z,20.37
2023-06-08T09:15:32.953Z,20.38
2023-06-08T09:18:03.984Z,20.43
2023-06-08T09:20:35.461Z,20.51
2023-06-08T09:23:24.324Z,20.63
2023-06-08T09:25:52.292Z,20.73
2023-06-08T09:28:29.657Z,20.83
2023-06-08T09:31:01.764Z,20.99
2023-06-08T09:33:30.529Z,21.04
2023-06-08T09:36:00.323Z,21.00
2023-06-08T09:38:30.977Z,21.08
2023-06-08T09:41:12.928Z,21.10
2023-06-08T09:43:39.470Z,21.18
2023-06-08T09:46:07.118Z,21.28
2023-06-08T09:48:34.428Z,21.27
2023-06-08T09:51:01.410Z,21.24
2023-06-08T09:53:29.833Z,21.17
2023-06-08T09:55:59.744Z,21.10
2023-06-08T09:58:26.925Z,21.20
2023-06-08T10:01:01.381Z,21.27
2023-06-08T10:03:41.917Z,21.33
2023-06-08T10:06:10.218Z,21.32
2023-06-08T10:08:39.977Z,21.29
2023-06-08T10:11:10.103Z,21.37
2023-06-08T10:13:37.031Z,21.43
2023-06-08T10:16:03.909Z,21.58
2023-06-08T10:18:31.914Z,21.52
2023-06-08T10:20:59.290Z,21.45
2023-06-08T10:23:28.132Z,21.38
2023-06-08T10:25:56.901Z,21.48
2023-06-08T10:28:23.549Z,21.63
2023-06-08T10:30:50.179Z,21.98
2023-06-08T10:33:22.155Z,22.20
2023-06-08T10:36:07.460Z,22.23
2023-06-08T10:38:55.328Z,22.29
2023-06-08T10:41:40.715Z,22.32
2023-06-08T10:44:30.072Z,22.53
2023-06-08T10:47:02.432Z,22.53
2023-06-08T10:49:32.573Z,22.36
2023-06-08T10:52:01.086Z,22.18
2023-06-08T10:54:28.215Z,22.08
2023-06-08T10:57:15.307Z,22.07
2023-06-08T10:59:43.113Z,22.12
2023-06-08T11:02:09.801Z,22.12
2023-06-08T11:04:48.353Z,22.13
2023-06-08T11:07:24.837Z,22.16
2023-06-08T11:09:51.629Z,22.13
2023-06-08T11:12:18.162Z,22.11
2023-06-08T11:14:44.601Z,22.12
2023-06-08T11:17:11.312Z,22.17
2023-06-08T11:19:37.850Z,22.20
2023-06-08T11:22:04.540Z,22.20
2023-06-08T11:24:31.335Z,22.21
2023-06-08T11:27:05.332Z,22.31
2023-06-08T11:29:32.321Z,22.44
2023-06-08T11:32:11.668Z,22.51
2023-06-08T11:34:38.901Z,22.64
2023-06-08T11:37:05.747Z,22.86
2023-06-08T11:39:34.541Z,23.04
2023-06-08T11:42:01.518Z,23.19
2023-06-08T11:44:28.166Z,23.39
2023-06-08T11:46:54.990Z,23.38
2023-06-08T11:49:21.574Z,23.51
2023-06-08T11:51:51.165Z,23.49
2023-06-08T11:54:18.276Z,23.77
2023-06-08T11:56:48.451Z,23.82
2023-06-08T11:59:16.607Z,23.57
2023-06-08T12:01:59.750Z,24.07
2023-06-08T12:04:34.771Z,24.62
2023-06-08T12:07:10.599Z,24.89
2023-06-08T12:09:38.132Z,24.42
2023-06-08T12:12:12.282Z,23.97
2023-06-08T12:14:49.335Z,23.71
2023-06-08T12:17:17.028Z,24.80
2023-06-08T12:19:44.924Z,25.65
2023-06-08T12:22:11.914Z,26.17
2023-06-08T12:24:39.108Z,26.46
2023-06-08T12:27:07.797Z,25.62
2023-06-08T12:29:35.329Z,24.99
2023-06-08T12:32:02.021Z,24.67
2023-06-08T12:34:28.502Z,24.19
2023-06-08T12:36:55.134Z,23.92
2023-06-08T12:39:21.720Z,23.80
2023-06-08T12:41:48.527Z,24.47
2023-06-08T12:44:15.021Z,24.82
2023-06-08T12:46:41.716Z,25.74
2023-06-08T12:49:08.644Z,26.37
2023-06-08T12:51:35.262Z,26.73
2023-06-08T12:54:02.024Z,26.73
2023-06-08T12:56:28.501Z,26.21
2023-06-08T12:58:55.206Z,25.43
2023-06-08T13:01:21.964Z,24.86
2023-06-08T13:03:48.755Z,24.47
2023-06-08T13:06:15.673Z,24.22
2023-06-08T13:08:42.198Z,24.09
2023-06-08T13:11:09.086Z,24.12
2023-06-08T13:13:35.629Z,24.39
2023-06-08T13:16:02.771Z,24.34
2023-06-08T13:18:30.876Z,24.86
2023-06-08T13:20:57.905Z,25.68
2023-06-08T13:23:25.879Z,26.50
2023-06-08T13:25:55.264Z,27.07
2023-06-08T13:28:21.774Z,27.21
2023-06-08T13:30:48.418Z,26.33
2023-06-08T13:33:15.064Z,25.79
2023-06-08T13:35:44.734Z,25.92
2023-06-08T13:38:12.351Z,25.46
2023-06-08T13:40:39.988Z,25.36
2023-06-08T13:43:11.045Z,25.97
2023-06-08T13:45:37.956Z,26.70
2023-06-08T13:48:04.883Z,27.10
2023-06-08T13:50:31.496Z,27.16
2023-06-08T13:52:58.548Z,27.40
2023-06-08T13:55:26.720Z,27.48
2023-06-08T13:57:53.254Z,26.81
2023-06-08T14:00:20.435Z,26.52
2023-06-08T14:02:48.618Z,26.81
2023-06-08T14:05:19.572Z,27.14
2023-06-08T14:07:46.591Z,27.28
2023-06-08T14:10:13.538Z,27.19
2023-06-08T14:12:40.621Z,27.35
2023-06-08T14:15:10.685Z,27.16
2023-06-08T14:17:37.208Z,27.25
2023-06-08T14:20:04.258Z,27.44
2023-06-08T14:22:30.939Z,27.22
2023-06-08T14:24:57.428Z,27.31
2023-06-08T14:27:23.876Z,27.35
2023-06-08T14:29:50.340Z,27.60
2023-06-08T14:32:16.872Z,27.82
2023-06-08T14:34:43.433Z,27.99
2023-06-08T14:37:10.012Z,27.93
2023-06-08T14:39:37.598Z,28.00
2023-06-08T14:42:07.358Z,28.01
2023-06-08T14:44:35.759Z,27.78
2023-06-08T14:47:02.921Z,27.70
2023-06-08T14:49:29.739Z,27.55
2023-06-08T14:51:56.264Z,27.47
2023-06-08T14:54:22.819Z,27.47
2023-06-08T14:56:49.494Z,27.52
2023-06-08T14:59:16.034Z,27.49
2023-06-08T15:01:42.762Z,27.40
2023-06-08T15:04:12.102Z,27.34
2023-06-08T15:06:38.696Z,27.25
2023-06-08T15:09:05.330Z,27.25
2023-06-08T15:11:31.830Z,27.33
2023-06-08T15:13:58.402Z,27.19
2023-06-08T15:16:25.028Z,26.91
2023-06-08T15:18:51.590Z,26.90
2023-06-08T15:21:18.128Z,26.69
2023-06-08T15:23:46.859Z,26.79
2023-06-08T15:26:13.780Z,26.93
2023-06-08T15:28:40.448Z,27.04
2023-06-08T15:31:07.253Z,27.14
2023-06-08T15:33:33.756Z,27.22
2023-06-08T15:36:00.317Z,27.31
2023-06-08T15:38:26.865Z,27.26
2023-06-08T15:40:55.494Z,27.33
2023-06-08T15:43:22.031Z,27.45
2023-06-08T15:45:48.678Z,27.52
2023-06-08T15:48:15.183Z,27.22
2023-06-08T15:50:41.748Z,27.24
2023-06-08T15:53:08.274Z,27.30
2023-06-08T15:55:34.829Z,27.29
2023-06-08T15:58:01.520Z,27.41
2023-06-08T16:00:28.264Z,27.42
2023-06-08T16:02:54.872Z,27.40
2023-06-08T16:05:21.391Z,27.43
2023-06-08T16:07:47.916Z,27.44
2023-06-08T16:10:14.558Z,27.44
2023-06-08T16:12:41.074Z,27.55
2023-06-08T16:15:08.424Z,27.50
2023-06-08T16:17:35.127Z,27.55
2023-06-08T16:20:01.866Z,27.50
2023-06-08T16:22:28.368Z,27.52
2023-06-08T16:24:54.960Z,27.44
2023-06-08T16:27:21.446Z,27.49
2023-06-08T16:29:48.358Z,27.61
2023-06-08T16:32:15.208Z,27.66
2023-06-08T16:34:42.082Z,27.61
2023-06-08T16:37:08.618Z,27.73
2023-06-08T16:39:35.261Z,27.79
2023-06-08T16:42:01.795Z,27.91
2023-06-08T16:44:28.288Z,27.88
2023-06-08T16:46:55.780Z,27.95
2023-06-08T16:49:22.397Z,28.07
2023-06-08T16:51:49.409Z,28.22
2023-06-08T16:54:15.939Z,28.09
2023-06-08T16:56:42.497Z,28.10
2023-06-08T16:59:09.927Z,28.01
2023-06-08T17:01:37.984Z,28.04
2023-06-08T17:04:04.617Z,28.08
2023-06-08T17:06:31.074Z,28.08
2023-06-08T17:08:57.592Z,28.10
2023-06-08T17:11:24.161Z,28.10
2023-06-08T17:13:50.731Z,28.23
2023-06-08T17:16:17.288Z,28.16
2023-06-08T17:18:44.311Z,28.25
2023-06-08T17:21:12.354Z,28.20
2023-06-08T17:23:40.134Z,28.23
2023-06-08T17:26:07.213Z,28.18
2023-06-08T17:28:33.736Z,28.11
2023-06-08T17:31:00.285Z,28.09
2023-06-08T17:33:26.794Z,28.07
2023-06-08T17:35:53.317Z,27.98
2023-06-08T17:38:19.975Z,27.90
2023-06-08T17:40:46.593Z,27.78
2023-06-08T17:43:13.193Z,27.73
2023-06-08T17:45:40.727Z,27.72
2023-06-08T17:48:07.333Z,27.67
2023-06-08T17:50:34.011Z,27.54
2023-06-08T17:53:09.704Z,27.50
2023-06-08T17:55:39.410Z,27.33
2023-06-08T17:58:06.160Z,27.14
2023-06-08T18:00:32.618Z,27.12
2023-06-08T18:02:59.137Z,27.06
2023-06-08T18:05:25.851Z,27.03
2023-06-08T18:07:52.438Z,26.93
2023-06-08T18:10:18.995Z,26.83
2023-06-08T18:12:45.529Z,26.79
2023-06-08T18:15:12.079Z,26.69
2023-06-08T18:17:39.060Z,26.64
2023-06-08T18:20:06.915Z,26.54
2023-06-08T18:22:34.125Z,26.54
2023-06-08T18:25:03.596Z,26.48
2023-06-08T18:27:32.405Z,26.46
2023-06-08T18:29:58.908Z,26.38
2023-06-08T18:32:25.489Z,26.31
2023-06-08T18:34:52.088Z,26.24
2023-06-08T18:37:18.655Z,26.21
2023-06-08T18:39:58.334Z,26.19
2023-06-08T18:42:32.356Z,26.16
2023-06-08T18:44:59.915Z,26.11
2023-06-08T18:47:27.154Z,26.06
2023-06-08T18:49:53.727Z,26.02
2023-06-08T18:52:20.254Z,25.89
2023-06-08T18:54:47.120Z,25.81
2023-06-08T18:57:14.400Z,25.76
2023-06-08T18:59:42.472Z,25.72
2023-06-08T19:02:09.328Z,25.64
2023-06-08T19:04:35.906Z,25.59
2023-06-08T19:07:03.542Z,25.56
2023-06-08T19:09:30.338Z,25.49
2023-06-08T19:11:57.213Z,25.40
2023-06-08T19:14:23.839Z,25.31
2023-06-08T19:16:50.688Z,25.25
2023-06-08T19:19:17.892Z,25.20
2023-06-08T19:21:45.041Z,25.11
2023-06-08T19:24:12.062Z,25.01
2023-06-08T19:26:39.066Z,24.96
2023-06-08T19:29:08.520Z,24.84
2023-06-08T19:31:35.341Z,24.78
2023-06-08T19:34:02.354Z,24.68
2023-06-08T19:36:28.846Z,24.63
2023-06-08T19:38:55.640Z,24.59
2023-06-08T19:41:22.961Z,24.52
2023-06-08T19:43:50.988Z,24.44
2023-06-08T19:46:21.555Z,24.35
2023-06-08T19:48:50.875Z,24.31
2023-06-08T19:51:17.536Z,24.18
2023-06-08T19:53:44.196Z,24.16
2023-06-08T19:56:10.855Z,24.10
2023-06-08T19:58:37.462Z,24.05
2023-06-08T20:01:04.023Z,23.97
2023-06-08T20:03:30.656Z,23.90
2023-06-08T20:05:57.330Z,23.87
2023-06-08T20:08:25.433Z,23.75
2023-06-08T20:10:52.854Z,23.67
2023-06-08T20:13:19.383Z,23.57
2023-06-08T20:15:46.223Z,23.52
2023-06-08T20:18:17.527Z,23.45
2023-06-08T20:20:44.067Z,23.42
2023-06-08T20:23:10.606Z,23.40
2023-06-08T20:25:37.102Z,23.25
2023-06-08T20:28:03.754Z,23.21
2023-06-08T20:30:30.408Z,23.09
2023-06-08T20:32:57.029Z,22.99
2023-06-08T20:35:23.596Z,22.90
2023-06-08T20:37:50.099Z,22.91
2023-06-08T20:40:16.634Z,22.93
2023-06-08T20:42:43.187Z,22.90
2023-06-08T20:45:10.157Z,22.86
2023-06-08T20:47:36.657Z,22.78
2023-06-08T20:50:04.348Z,22.37
2023-06-08T20:52:31.171Z,22.12
2023-06-08T20:54:57.661Z,22.12
2023-06-08T20:57:24.265Z,22.08
2023-06-08T20:59:50.795Z,22.07
2023-06-08T21:02:17.335Z,22.05
2023-06-08T21:04:46.018Z,21.95
2023-06-08T21:07:13.136Z,21.92
2023-06-08T21:09:39.871Z,21.89
2023-06-08T21:12:07.626Z,21.78
2023-06-08T21:14:34.179Z,21.76
2023-06-08T21:17:00.765Z,21.80
2023-06-08T21:19:27.254Z,21.82
2023-06-08T21:21:53.907Z,21.86
2023-06-08T21:24:27.780Z,21.86
2023-06-08T21:26:57.747Z,21.87
2023-06-08T21:29:24.371Z,21.87
2023-06-08T21:31:50.856Z,21.89
2023-06-08T21:34:17.400Z,21.86
2023-06-08T21:36:43.928Z,21.89
2023-06-08T21:39:10.450Z,21.85
2023-06-08T21:41:36.963Z,21.80
2023-06-08T21:44:03.698Z,21.76
2023-06-08T21:46:30.261Z,21.71
2023-06-08T21:48:56.739Z,21.57
2023-06-08T21:51:23.309Z,21.51
2023-06-08T21:53:49.854Z,21.50
2023-06-08T21:56:16.447Z,21.45
2023-06-08T21:58:42.918Z,21.42
2023-06-08T22:01:09.458Z,21.34
2023-06-08T22:03:36.142Z,21.29
2023-06-08T22:06:02.621Z,21.18
2023-06-08T22:08:29.095Z,21.13
2023-06-08T22:10:55.576Z,21.08
2023-06-08T22:13:22.078Z,21.06
2023-06-08T22:15:48.601Z,21.05
2023-06-08T22:18:16.173Z,21.01
2023-06-08T22:20:43.485Z,20.94
2023-06-08T22:23:10.619Z,20.89
2023-06-08T22:25:40.882Z,20.78
2023-06-08T22:28:07.626Z,20.66
2023-06-08T22:30:34.169Z,20.56
2023-06-08T22:33:00.767Z,20.64
2023-06-08T22:35:27.258Z,20.71
2023-06-08T22:37:53.781Z,20.65
2023-06-08T22:40:20.376Z,20.53
2023-06-08T22:42:46.866Z,20.48
2023-06-08T22:45:13.380Z,20.44
2023-06-08T22:47:42.257Z,20.38
2023-06-08T22:50:09.176Z,20.29
2023-06-08T22:52:36.093Z,20.25
2023-06-08T22:55:03.430Z,20.14
2023-06-08T22:57:30.482Z,20.11
2023-06-08T22:59:57.146Z,20.08
2023-06-08T23:02:23.779Z,20.02
2023-06-08T23:04:50.440Z,20.02
2023-06-08T23:07:17.878Z,20.02
2023-06-08T23:09:49.651Z,19.97
2023-06-08T23:12:17.486Z,20.08
2023-06-08T23:14:50.025Z,20.08
2023-06-08T23:17:17.930Z,20.05
2023-06-08T23:19:49.211Z,20.04
2023-06-08T23:22:20.134Z,19.93
2023-06-08T23:24:48.261Z,19.91
2023-06-08T23:27:15.438Z,19.84
2023-06-08T23:29:42.325Z,19.77
2023-06-08T23:32:09.051Z,19.74
2023-06-08T23:34:36.019Z,19.73
2023-06-08T23:37:02.510Z,19.49
2023-06-08T23:39:29.006Z,19.41
2023-06-08T23:41:55.540Z,19.32
2023-06-08T23:44:22.052Z,19.24
2023-06-08T23:46:48.910Z,19.17
2023-06-08T23:49:15.940Z,19.16
2023-06-08T23:51:42.427Z,19.17
2023-06-08T23:54:09.243Z,18.96
2023-06-08T23:56:35.875Z,18.96
2023-06-08T23:59:02.354Z,19.01
